sensor_id;sensor_type;location;lat;lon;timestamp;P1;durP1;ratioP1;P2;durP2;ratioP2
47009;SDS011;59230;54.164;-3.124;2023-04-01T00:01:45;2.50;;;1.27;;
47009;SDS011;59230;54.164;-3.124;2023-04-01T00:04:10;1.98;;;1.33;;
47009;SDS011;59230;54.164;-3.124;2023-04-01T00:06:36;2.65;;;1.20;;
47009;SDS011;59230;54.164;-3.124;2023-04-01T00:09:02;3.33;;;1.60;;
47009;SDS011;59230;54.164;-3.124;2023-04-01T00:11:30;3.03;;;1.50;;
47009;SDS011;59230;54.164;-3.124;2023-04-01T00:13:55;3.20;;;1.75;;
47009;SDS011;59230;54.164;-3.124;2023-04-01T00:16:23;3.42;;;1.90;;
47009;SDS011;59230;54.164;-3.124;2023-04-01T00:18:49;2.17;;;1.50;;
47009;SDS011;59230;54.164;-3.124;2023-04-01T00:21:18;2.92;;;1.40;;
47009;SDS011;59230;54.164;-3.124;2023-04-01T00:23:45;3.15;;;1.55;;
47009;SDS011;59230;54.164;-3.124;2023-04-01T00:26:11;4.30;;;1.77;;
47009;SDS011;59230;54.164;-3.124;2023-04-01T00:28:43;4.68;;;1.70;;
47009;SDS011;59230;54.164;-3.124;2023-04-01T00:31:09;2.03;;;1.60;;
47009;SDS011;59230;54.164;-3.124;2023-04-01T00:33:36;2.65;;;1.60;;
47009;SDS011;59230;54.164;-3.124;2023-04-01T00:36:13;1.85;;;1.55;;
47009;SDS011;59230;54.164;-3.124;2023-04-01T00:38:43;3.90;;;2.00;;
47009;SDS011;59230;54.164;-3.124;2023-04-01T00:41:11;2.40;;;1.83;;
47009;SDS011;59230;54.164;-3.124;2023-04-01T00:43:43;3.47;;;2.10;;
47009;SDS011;59230;54.164;-3.124;2023-04-01T00:46:10;2.85;;;2.13;;
47009;SDS011;59230;54.164;-3.124;2023-04-01T00:48:42;4.82;;;2.17;;
47009;SDS011;59230;54.164;-3.124;2023-04-01T00:53:39;2.47;;;1.92;;
47009;SDS011;59230;54.164;-3.124;2023-04-01T00:56:15;2.13;;;1.80;;
47009;SDS011;59230;54.164;-3.124;2023-04-01T00:58:48;4.57;;;2.20;;
47009;SDS011;59230;54.164;-3.124;2023-04-01T01:01:19;2.53;;;1.85;;
47009;SDS011;59230;54.164;-3.124;2023-04-01T01:03:47;5.25;;;2.00;;
47009;SDS011;59230;54.164;-3.124;2023-04-01T01:09:10;4.60;;;1.50;;
47009;SDS011;59230;54.164;-3.124;2023-04-01T01:11:48;3.65;;;1.50;;
47009;SDS011;59230;54.164;-3.124;2023-04-01T01:22:57;3.40;;;1.10;;
47009;SDS011;59230;54.164;-3.124;2023-04-01T01:31:50;2.50;;;0.90;;
47009;SDS011;59230;54.164;-3.124;2023-04-01T01:37:19;1.20;;;0.80;;
47009;SDS011;59230;54.164;-3.124;2023-04-01T01:39:53;1.52;;;0.90;;
47009;SDS011;59230;54.164;-3.124;2023-04-01T01:42:26;1.00;;;0.90;;
47009;SDS011;59230;54.164;-3.124;2023-04-01T01:44:56;1.33;;;1.08;;
47009;SDS011;59230;54.164;-3.124;2023-04-01T01:47:26;2.53;;;1.10;;
47009;SDS011;59230;54.164;-3.124;2023-04-01T01:49:54;2.45;;;1.13;;
47009;SDS011;59230;54.164;-3.124;2023-04-01T01:52:27;2.85;;;1.20;;
47009;SDS011;59230;54.164;-3.124;2023-04-01T01:54:55;1.60;;;1.08;;
47009;SDS011;59230;54.164;-3.124;2023-04-01T01:57:24;2.38;;;1.15;;
47009;SDS011;59230;54.164;-3.124;2023-04-01T02:00:04;1.40;;;1.30;;
47009;SDS011;59230;54.164;-3.124;2023-04-01T02:02:40;2.92;;;1.10;;
47009;SDS011;59230;54.164;-3.124;2023-04-01T02:05:28;3.05;;;1.30;;
47009;SDS011;59230;54.164;-3.124;2023-04-01T02:08:08;2.85;;;2.00;;
47009;SDS011;59230;54.164;-3.124;2023-04-01T02:10:55;4.35;;;1.38;;
47009;SDS011;59230;54.164;-3.124;2023-04-01T02:13:32;3.40;;;1.67;;
47009;SDS011;59230;54.164;-3.124;2023-04-01T02:16:11;2.97;;;1.70;;
47009;SDS011;59230;54.164;-3.124;2023-04-01T02:18:42;2.72;;;1.50;;
47009;SDS011;59230;54.164;-3.124;2023-04-01T02:21:11;5.80;;;1.73;;
47009;SDS011;59230;54.164;-3.124;2023-04-01T02:23:39;3.42;;;1.30;;
47009;SDS011;59230;54.164;-3.124;2023-04-01T02:26:06;1.98;;;1.35;;
47009;SDS011;59230;54.164;-3.124;2023-04-01T02:28:34;3.08;;;1.40;;
47009;SDS011;59230;54.164;-3.124;2023-04-01T02:31:03;3.53;;;1.40;;
47009;SDS011;59230;54.164;-3.124;2023-04-01T02:33:30;2.55;;;1.45;;
47009;SDS011;59230;54.164;-3.124;2023-04-01T02:35:57;2.53;;;1.40;;
47009;SDS011;59230;54.164;-3.124;2023-04-01T02:38:23;2.95;;;1.45;;
47009;SDS011;59230;54.164;-3.124;2023-04-01T02:40:56;3.72;;;1.77;;
47009;SDS011;59230;54.164;-3.124;2023-04-01T02:43:25;2.72;;;1.70;;
47009;SDS011;59230;54.164;-3.124;2023-04-01T02:45:52;4.45;;;1.95;;
47009;SDS011;59230;54.164;-3.124;2023-04-01T02:48:18;3.25;;;1.55;;
47009;SDS011;59230;54.164;-3.124;2023-04-01T02:50:45;2.35;;;1.42;;
47009;SDS011;59230;54.164;-3.124;2023-04-01T02:53:13;4.18;;;1.50;;
47009;SDS011;59230;54.164;-3.124;2023-04-01T02:55:38;5.22;;;1.50;;
47009;SDS011;59230;54.164;-3.124;2023-04-01T02:58:05;2.60;;;1.60;;
47009;SDS011;59230;54.164;-3.124;2023-04-01T03:00:35;2.35;;;1.70;;
47009;SDS011;59230;54.164;-3.124;2023-04-01T03:03:00;3.15;;;1.73;;
47009;SDS011;59230;54.164;-3.124;2023-04-01T03:05:28;4.60;;;1.83;;
47009;SDS011;59230;54.164;-3.124;2023-04-01T03:07:55;5.20;;;2.10;;
47009;SDS011;59230;54.164;-3.124;2023-04-01T03:10:21;2.85;;;2.10;;
47009;SDS011;59230;54.164;-3.124;2023-04-01T03:12:52;8.13;;;2.78;;
47009;SDS011;59230;54.164;-3.124;2023-04-01T03:15:19;3.17;;;2.17;;
47009;SDS011;59230;54.164;-3.124;2023-04-01T03:17:45;3.03;;;1.83;;
47009;SDS011;59230;54.164;-3.124;2023-04-01T03:20:13;4.28;;;1.90;;
47009;SDS011;59230;54.164;-3.124;2023-04-01T03:22:44;4.97;;;2.35;;
47009;SDS011;59230;54.164;-3.124;2023-04-01T03:25:09;4.20;;;2.10;;
47009;SDS011;59230;54.164;-3.124;2023-04-01T03:27:37;2.22;;;1.58;;
47009;SDS011;59230;54.164;-3.124;2023-04-01T03:30:03;2.85;;;1.75;;
47009;SDS011;59230;54.164;-3.124;2023-04-01T03:32:30;4.03;;;1.40;;
47009;SDS011;59230;54.164;-3.124;2023-04-01T03:34:57;2.80;;;1.40;;
47009;SDS011;59230;54.164;-3.124;2023-04-01T03:37:25;4.38;;;1.10;;
47009;SDS011;59230;54.164;-3.124;2023-04-01T03:39:51;4.07;;;1.10;;
47009;SDS011;59230;54.164;-3.124;2023-04-01T03:42:17;3.17;;;0.82;;
47009;SDS011;59230;54.164;-3.124;2023-04-01T03:44:43;2.75;;;1.08;;
47009;SDS011;59230;54.164;-3.124;2023-04-01T03:47:09;2.30;;;1.08;;
47009;SDS011;59230;54.164;-3.124;2023-04-01T03:49:35;2.25;;;0.88;;
47009;SDS011;59230;54.164;-3.124;2023-04-01T03:52:02;2.35;;;0.80;;
47009;SDS011;59230;54.164;-3.124;2023-04-01T03:54:28;3.60;;;1.00;;
47009;SDS011;59230;54.164;-3.124;2023-04-01T03:56:55;2.83;;;0.98;;
47009;SDS011;59230;54.164;-3.124;2023-04-01T03:59:23;2.60;;;0.98;;
47009;SDS011;59230;54.164;-3.124;2023-04-01T04:01:50;2.10;;;1.00;;
47009;SDS011;59230;54.164;-3.124;2023-04-01T04:04:15;2.50;;;0.80;;
47009;SDS011;59230;54.164;-3.124;2023-04-01T04:06:41;2.25;;;0.88;;
47009;SDS011;59230;54.164;-3.124;2023-04-01T04:09:06;2.20;;;0.88;;
47009;SDS011;59230;54.164;-3.124;2023-04-01T04:11:34;2.08;;;1.08;;
47009;SDS011;59230;54.164;-3.124;2023-04-01T04:14:02;1.92;;;1.00;;
47009;SDS011;59230;54.164;-3.124;2023-04-01T04:16:28;3.42;;;1.00;;
47009;SDS011;59230;54.164;-3.124;2023-04-01T04:18:53;4.30;;;0.80;;
47009;SDS011;59230;54.164;-3.124;2023-04-01T04:21:21;2.10;;;0.80;;
47009;SDS011;59230;54.164;-3.124;2023-04-01T04:23:46;1.08;;;0.73;;
47009;SDS011;59230;54.164;-3.124;2023-04-01T04:26:12;2.40;;;0.85;;
47009;SDS011;59230;54.164;-3.124;2023-04-01T04:28:40;4.53;;;1.13;;
47009;SDS011;59230;54.164;-3.124;2023-04-01T04:31:06;3.40;;;0.80;;
47009;SDS011;59230;54.164;-3.124;2023-04-01T04:33:33;2.88;;;0.90;;
47009;SDS011;59230;54.164;-3.124;2023-04-01T04:36:03;2.33;;;0.80;;
47009;SDS011;59230;54.164;-3.124;2023-04-01T04:38:30;2.67;;;1.10;;
47009;SDS011;59230;54.164;-3.124;2023-04-01T04:40:56;4.15;;;0.77;;
47009;SDS011;59230;54.164;-3.124;2023-04-01T04:43:22;0.93;;;0.80;;
47009;SDS011;59230;54.164;-3.124;2023-04-01T04:45:48;3.85;;;1.20;;
47009;SDS011;59230;54.164;-3.124;2023-04-01T04:48:14;2.53;;;1.20;;
47009;SDS011;59230;54.164;-3.124;2023-04-01T04:50:44;3.85;;;1.10;;
47009;SDS011;59230;54.164;-3.124;2023-04-01T04:53:11;4.60;;;1.35;;
47009;SDS011;59230;54.164;-3.124;2023-04-01T04:55:44;2.63;;;1.10;;
47009;SDS011;59230;54.164;-3.124;2023-04-01T04:58:15;2.70;;;1.42;;
47009;SDS011;59230;54.164;-3.124;2023-04-01T05:00:43;2.55;;;1.42;;
47009;SDS011;59230;54.164;-3.124;2023-04-01T05:03:09;4.97;;;1.60;;
47009;SDS011;59230;54.164;-3.124;2023-04-01T05:05:35;2.67;;;1.30;;
47009;SDS011;59230;54.164;-3.124;2023-04-01T05:08:02;2.13;;;1.10;;
47009;SDS011;59230;54.164;-3.124;2023-04-01T05:10:27;2.30;;;1.40;;
47009;SDS011;59230;54.164;-3.124;2023-04-01T05:12:53;2.50;;;1.20;;
47009;SDS011;59230;54.164;-3.124;2023-04-01T05:15:19;1.80;;;1.30;;
47009;SDS011;59230;54.164;-3.124;2023-04-01T05:17:48;1.88;;;1.17;;
47009;SDS011;59230;54.164;-3.124;2023-04-01T05:20:17;2.67;;;1.30;;
47009;SDS011;59230;54.164;-3.124;2023-04-01T05:22:42;3.75;;;1.55;;
47009;SDS011;59230;54.164;-3.124;2023-04-01T05:25:09;2.45;;;1.30;;
47009;SDS011;59230;54.164;-3.124;2023-04-01T05:27:36;2.97;;;1.60;;
47009;SDS011;59230;54.164;-3.124;2023-04-01T05:30:02;1.58;;;1.02;;
47009;SDS011;59230;54.164;-3.124;2023-04-01T05:32:30;2.17;;;1.17;;
47009;SDS011;59230;54.164;-3.124;2023-04-01T05:34:57;2.92;;;0.90;;
47009;SDS011;59230;54.164;-3.124;2023-04-01T05:37:24;0.82;;;0.80;;
47009;SDS011;59230;54.164;-3.124;2023-04-01T05:39:51;2.35;;;0.90;;
47009;SDS011;59230;54.164;-3.124;2023-04-01T05:42:16;1.40;;;0.77;;
47009;SDS011;59230;54.164;-3.124;2023-04-01T05:44:42;3.55;;;0.70;;
47009;SDS011;59230;54.164;-3.124;2023-04-01T05:47:08;2.55;;;0.93;;
47009;SDS011;59230;54.164;-3.124;2023-04-01T05:49:33;1.85;;;0.80;;
47009;SDS011;59230;54.164;-3.124;2023-04-01T05:51:59;1.33;;;0.80;;
47009;SDS011;59230;54.164;-3.124;2023-04-01T05:54:25;3.45;;;0.73;;
47009;SDS011;59230;54.164;-3.124;2023-04-01T05:56:54;3.55;;;0.80;;
47009;SDS011;59230;54.164;-3.124;2023-04-01T05:59:19;2.70;;;1.02;;
47009;SDS011;59230;54.164;-3.124;2023-04-01T06:01:45;7.05;;;1.08;;
47009;SDS011;59230;54.164;-3.124;2023-04-01T06:04:16;2.40;;;0.70;;
47009;SDS011;59230;54.164;-3.124;2023-04-01T06:06:44;1.73;;;0.70;;
47009;SDS011;59230;54.164;-3.124;2023-04-01T06:09:12;1.70;;;0.82;;
47009;SDS011;59230;54.164;-3.124;2023-04-01T06:34:04;0.75;;;0.50;;
47009;SDS011;59230;54.164;-3.124;2023-04-01T06:48:40;2.95;;;0.52;;
47009;SDS011;59230;54.164;-3.124;2023-04-01T06:54:21;2.53;;;0.60;;
47009;SDS011;59230;54.164;-3.124;2023-04-01T06:59:57;2.70;;;0.40;;
47009;SDS011;59230;54.164;-3.124;2023-04-01T07:04:58;1.50;;;0.53;;
47009;SDS011;59230;54.164;-3.124;2023-04-01T07:10:43;0.68;;;0.50;;
47009;SDS011;59230;54.164;-3.124;2023-04-01T07:13:20;0.85;;;0.50;;
47009;SDS011;59230;54.164;-3.124;2023-04-01T07:16:03;1.15;;;0.65;;
47009;SDS011;59230;54.164;-3.124;2023-04-01T07:18:32;3.05;;;0.60;;
47009;SDS011;59230;54.164;-3.124;2023-04-01T07:21:13;2.15;;;0.60;;
47009;SDS011;59230;54.164;-3.124;2023-04-01T07:24:09;0.82;;;0.45;;
47009;SDS011;59230;54.164;-3.124;2023-04-01T07:26:46;2.90;;;0.50;;
47009;SDS011;59230;54.164;-3.124;2023-04-01T07:29:13;2.30;;;0.88;;
47009;SDS011;59230;54.164;-3.124;2023-04-01T07:37:12;2.78;;;0.50;;
47009;SDS011;59230;54.164;-3.124;2023-04-01T07:40:37;0.88;;;0.40;;
47009;SDS011;59230;54.164;-3.124;2023-04-01T07:43:05;1.05;;;0.50;;
47009;SDS011;59230;54.164;-3.124;2023-04-01T07:51:47;0.80;;;0.40;;
47009;SDS011;59230;54.164;-3.124;2023-04-01T07:54:43;0.30;;;0.30;;
47009;SDS011;59230;54.164;-3.124;2023-04-01T07:57:23;0.50;;;0.40;;
47009;SDS011;59230;54.164;-3.124;2023-04-01T08:05:46;0.90;;;0.45;;
47009;SDS011;59230;54.164;-3.124;2023-04-01T08:11:06;0.90;;;0.45;;
47009;SDS011;59230;54.164;-3.124;2023-04-01T08:25:21;1.75;;;0.50;;
47009;SDS011;59230;54.164;-3.124;2023-04-01T08:27:53;1.00;;;0.40;;
47009;SDS011;59230;54.164;-3.124;2023-04-01T08:30:47;1.25;;;0.60;;
47009;SDS011;59230;54.164;-3.124;2023-04-01T08:33:31;1.27;;;0.50;;
47009;SDS011;59230;54.164;-3.124;2023-04-01T08:38:57;0.90;;;0.50;;
47009;SDS011;59230;54.164;-3.124;2023-04-01T08:41:48;0.70;;;0.30;;
47009;SDS011;59230;54.164;-3.124;2023-04-01T08:52:36;1.70;;;0.55;;
47009;SDS011;59230;54.164;-3.124;2023-04-01T09:00:45;3.10;;;0.55;;
47009;SDS011;59230;54.164;-3.124;2023-04-01T09:08:47;0.90;;;0.45;;
47009;SDS011;59230;54.164;-3.124;2023-04-01T09:11:33;2.35;;;0.63;;
47009;SDS011;59230;54.164;-3.124;2023-04-01T09:23:06;1.55;;;0.50;;
47009;SDS011;59230;54.164;-3.124;2023-04-01T09:28:34;1.05;;;0.43;;
47009;SDS011;59230;54.164;-3.124;2023-04-01T10:15:55;1.77;;;0.50;;
47009;SDS011;59230;54.164;-3.124;2023-04-01T10:18:56;1.63;;;0.67;;
47009;SDS011;59230;54.164;-3.124;2023-04-01T10:21:52;1.10;;;0.52;;
47009;SDS011;59230;54.164;-3.124;2023-04-01T10:54:19;0.75;;;0.50;;
47009;SDS011;59230;54.164;-3.124;2023-04-01T11:25:52;0.77;;;0.40;;
47009;SDS011;59230;54.164;-3.124;2023-04-01T11:31:37;1.20;;;0.50;;
47009;SDS011;59230;54.164;-3.124;2023-04-01T11:34:43;2.47;;;0.60;;
47009;SDS011;59230;54.164;-3.124;2023-04-01T11:37:31;0.88;;;0.50;;
47009;SDS011;59230;54.164;-3.124;2023-04-01T11:45:51;1.75;;;0.65;;
47009;SDS011;59230;54.164;-3.124;2023-04-01T11:51:26;0.88;;;0.50;;
47009;SDS011;59230;54.164;-3.124;2023-04-01T11:54:36;1.52;;;0.70;;
47009;SDS011;59230;54.164;-3.124;2023-04-01T12:05:29;3.15;;;0.70;;
47009;SDS011;59230;54.164;-3.124;2023-04-01T12:08:48;1.33;;;0.60;;
47009;SDS011;59230;54.164;-3.124;2023-04-01T12:41:18;4.30;;;0.50;;
47009;SDS011;59230;54.164;-3.124;2023-04-01T12:44:30;2.10;;;0.50;;
47009;SDS011;59230;54.164;-3.124;2023-04-01T12:47:20;1.60;;;0.50;;
47009;SDS011;59230;54.164;-3.124;2023-04-01T12:55:48;0.93;;;0.47;;
47009;SDS011;59230;54.164;-3.124;2023-04-01T13:01:24;0.93;;;0.35;;
47009;SDS011;59230;54.164;-3.124;2023-04-01T13:12:54;4.55;;;0.60;;
47009;SDS011;59230;54.164;-3.124;2023-04-01T13:20:42;1.58;;;0.50;;
47009;SDS011;59230;54.164;-3.124;2023-04-01T13:26:13;2.05;;;0.60;;
47009;SDS011;59230;54.164;-3.124;2023-04-01T13:28:49;0.77;;;0.60;;
47009;SDS011;59230;54.164;-3.124;2023-04-01T13:37:11;3.40;;;0.50;;
47009;SDS011;59230;54.164;-3.124;2023-04-01T13:45:19;0.88;;;0.47;;
47009;SDS011;59230;54.164;-3.124;2023-04-01T13:53:15;1.58;;;0.60;;
47009;SDS011;59230;54.164;-3.124;2023-04-01T14:01:56;1.30;;;0.50;;
47009;SDS011;59230;54.164;-3.124;2023-04-01T14:07:14;2.53;;;1.00;;
47009;SDS011;59230;54.164;-3.124;2023-04-01T14:15:39;1.58;;;0.50;;
47009;SDS011;59230;54.164;-3.124;2023-04-01T14:35:21;1.38;;;0.50;;
47009;SDS011;59230;54.164;-3.124;2023-04-01T14:38:23;1.85;;;0.50;;
47009;SDS011;59230;54.164;-3.124;2023-04-01T14:40:55;0.52;;;0.50;;
47009;SDS011;59230;54.164;-3.124;2023-04-01T14:49:04;2.10;;;0.43;;
47009;SDS011;59230;54.164;-3.124;2023-04-01T14:51:48;1.25;;;0.45;;
47009;SDS011;59230;54.164;-3.124;2023-04-01T14:56:51;1.45;;;0.60;;
47009;SDS011;59230;54.164;-3.124;2023-04-01T14:59:30;1.42;;;0.50;;
47009;SDS011;59230;54.164;-3.124;2023-04-01T15:10:04;1.58;;;0.57;;
47009;SDS011;59230;54.164;-3.124;2023-04-01T15:13:14;4.63;;;0.75;;
47009;SDS011;59230;54.164;-3.124;2023-04-01T15:41:09;2.03;;;0.73;;
47009;SDS011;59230;54.164;-3.124;2023-04-01T15:43:57;1.23;;;0.70;;
47009;SDS011;59230;54.164;-3.124;2023-04-01T15:46:43;2.17;;;0.80;;
47009;SDS011;59230;54.164;-3.124;2023-04-01T16:00:30;1.55;;;0.65;;
47009;SDS011;59230;54.164;-3.124;2023-04-01T16:03:15;1.60;;;0.70;;
47009;SDS011;59230;54.164;-3.124;2023-04-01T16:08:52;2.03;;;0.80;;
47009;SDS011;59230;54.164;-3.124;2023-04-01T16:27:46;4.47;;;1.02;;
47009;SDS011;59230;54.164;-3.124;2023-04-01T16:33:19;2.15;;;0.60;;
47009;SDS011;59230;54.164;-3.124;2023-04-01T16:42:24;1.88;;;0.80;;
47009;SDS011;59230;54.164;-3.124;2023-04-01T16:47:35;3.00;;;0.90;;
47009;SDS011;59230;54.164;-3.124;2023-04-01T16:58:42;1.60;;;0.98;;
47009;SDS011;59230;54.164;-3.124;2023-04-01T17:01:22;6.35;;;1.30;;
47009;SDS011;59230;54.164;-3.124;2023-04-01T17:03:57;2.58;;;1.15;;
47009;SDS011;59230;54.164;-3.124;2023-04-01T17:17:23;3.60;;;1.15;;
47009;SDS011;59230;54.164;-3.124;2023-04-01T17:22:31;2.92;;;0.90;;
47009;SDS011;59230;54.164;-3.124;2023-04-01T17:27:51;5.57;;;1.10;;
47009;SDS011;59230;54.164;-3.124;2023-04-01T17:30:58;1.00;;;0.60;;
47009;SDS011;59230;54.164;-3.124;2023-04-01T17:33:41;3.33;;;1.23;;
47009;SDS011;59230;54.164;-3.124;2023-04-01T17:36:26;4.38;;;1.30;;
47009;SDS011;59230;54.164;-3.124;2023-04-01T17:39:32;6.07;;;1.40;;
47009;SDS011;59230;54.164;-3.124;2023-04-01T18:02:05;4.43;;;1.17;;
47009;SDS011;59230;54.164;-3.124;2023-04-01T18:07:30;2.92;;;1.15;;
47009;SDS011;59230;54.164;-3.124;2023-04-01T18:13:25;5.32;;;1.05;;
47009;SDS011;59230;54.164;-3.124;2023-04-01T18:16:23;6.20;;;1.38;;
47009;SDS011;59230;54.164;-3.124;2023-04-01T18:19:29;4.28;;;1.20;;
47009;SDS011;59230;54.164;-3.124;2023-04-01T18:22:28;3.22;;;1.30;;
47009;SDS011;59230;54.164;-3.124;2023-04-01T18:25:14;3.55;;;1.20;;
47009;SDS011;59230;54.164;-3.124;2023-04-01T18:27:44;2.20;;;1.17;;
47009;SDS011;59230;54.164;-3.124;2023-04-01T18:30:26;4.25;;;1.20;;
47009;SDS011;59230;54.164;-3.124;2023-04-01T18:39:19;1.77;;;1.10;;
47009;SDS011;59230;54.164;-3.124;2023-04-01T18:44:51;3.95;;;1.70;;
47009;SDS011;59230;54.164;-3.124;2023-04-01T18:47:50;3.17;;;1.50;;
47009;SDS011;59230;54.164;-3.124;2023-04-01T18:50:26;6.50;;;1.60;;
47009;SDS011;59230;54.164;-3.124;2023-04-01T18:53:17;4.60;;;1.98;;
47009;SDS011;59230;54.164;-3.124;2023-04-01T18:56:09;7.68;;;3.90;;
47009;SDS011;59230;54.164;-3.124;2023-04-01T19:04:41;4.60;;;1.67;;
47009;SDS011;59230;54.164;-3.124;2023-04-01T19:10:26;5.68;;;2.47;;
47009;SDS011;59230;54.164;-3.124;2023-04-01T19:21:47;7.50;;;2.03;;
47009;SDS011;59230;54.164;-3.124;2023-04-01T19:27:37;3.03;;;1.30;;
47009;SDS011;59230;54.164;-3.124;2023-04-01T19:41:47;5.43;;;1.20;;
47009;SDS011;59230;54.164;-3.124;2023-04-01T19:43:53;4.30;;;1.48;;
47009;SDS011;59230;54.164;-3.124;2023-04-01T20:23:50;8.73;;;2.33;;
47009;SDS011;59230;54.164;-3.124;2023-04-01T20:26:22;7.07;;;2.38;;
47009;SDS011;59230;54.164;-3.124;2023-04-01T20:48:24;9.40;;;2.45;;
47009;SDS011;59230;54.164;-3.124;2023-04-01T20:51:14;9.35;;;1.92;;
47009;SDS011;59230;54.164;-3.124;2023-04-01T20:56:32;9.50;;;2.00;;
47009;SDS011;59230;54.164;-3.124;2023-04-01T21:07:20;9.82;;;2.05;;
47009;SDS011;59230;54.164;-3.124;2023-04-01T21:24:23;13.05;;;2.63;;
47009;SDS011;59230;54.164;-3.124;2023-04-01T21:51:34;7.78;;;1.92;;
47009;SDS011;59230;54.164;-3.124;2023-04-01T21:54:08;6.82;;;2.17;;
47009;SDS011;59230;54.164;-3.124;2023-04-01T22:10:48;9.13;;;2.70;;
47009;SDS011;59230;54.164;-3.124;2023-04-01T22:13:32;8.02;;;3.00;;
47009;SDS011;59230;54.164;-3.124;2023-04-01T22:18:42;13.32;;;3.08;;
47009;SDS011;59230;54.164;-3.124;2023-04-01T22:26:44;7.78;;;2.40;;
47009;SDS011;59230;54.164;-3.124;2023-04-01T22:43:44;6.40;;;2.20;;
47009;SDS011;59230;54.164;-3.124;2023-04-01T22:46:21;8.13;;;2.30;;
47009;SDS011;59230;54.164;-3.124;2023-04-01T22:57:07;8.60;;;2.13;;
47009;SDS011;59230;54.164;-3.124;2023-04-01T22:59:42;7.35;;;1.98;;
47009;SDS011;59230;54.164;-3.124;2023-04-01T23:02:28;7.40;;;1.90;;
47009;SDS011;59230;54.164;-3.124;2023-04-01T23:04:59;6.38;;;2.22;;
47009;SDS011;59230;54.164;-3.124;2023-04-01T23:10:15;7.75;;;1.88;;
47009;SDS011;59230;54.164;-3.124;2023-04-01T23:13:01;10.77;;;2.08;;
47009;SDS011;59230;54.164;-3.124;2023-04-01T23:15:29;8.30;;;1.83;;
47009;SDS011;59230;54.164;-3.124;2023-04-01T23:28:39;5.10;;;1.60;;
47009;SDS011;59230;54.164;-3.124;2023-04-01T23:34:45;3.60;;;1.42;;
47009;SDS011;59230;54.164;-3.124;2023-04-01T23:37:09;4.03;;;1.48;;
47009;SDS011;59230;54.164;-3.124;2023-04-01T23:39:38;7.18;;;1.58;;
47009;SDS011;59230;54.164;-3.124;2023-04-01T23:42:13;4.87;;;1.83;;
47009;SDS011;59230;54.164;-3.124;2023-04-01T23:45:02;8.38;;;1.92;;
47009;SDS011;59230;54.164;-3.124;2023-04-01T23:47:45;6.00;;;1.58;;
47009;SDS011;59230;54.164;-3.124;2023-04-01T23:50:19;6.20;;;1.55;;
47009;SDS011;59230;54.164;-3.124;2023-04-01T23:52:54;5.03;;;1.60;;
47009;SDS011;59230;54.164;-3.124;2023-04-01T23:55:34;5.80;;;1.77;;
